createdAt,value
2019-02-20T07:36:11.567Z,2.75
2019-02-20T07:38:43.140Z,1.67
2019-02-20T07:41:14.503Z,1.80
2019-02-20T07:43:44.907Z,2.00
2019-02-20T07:46:15.292Z,2.25
2019-02-20T07:48:45.721Z,1.82
2019-02-20T07:51:16.272Z,1.90
2019-02-20T07:53:46.607Z,2.05
2019-02-20T07:56:17.155Z,1.60
2019-02-20T07:58:47.684Z,1.80
2019-02-20T08:03:29.765Z,6.72
2019-02-20T08:06:03.339Z,6.20
2019-02-20T08:08:33.885Z,7.83
2019-02-20T08:11:05.850Z,6.60
2019-02-20T08:13:39.313Z,7.50
2019-02-20T08:16:11.321Z,7.87
2019-02-20T08:18:44.037Z,6.70
2019-02-20T08:21:15.674Z,7.72
2019-02-20T08:23:46.187Z,7.08
2019-02-20T08:26:16.602Z,6.62
2019-02-20T08:28:47.061Z,7.08
2019-02-20T08:31:17.435Z,6.75
2019-02-20T08:33:48.017Z,7.72
2019-02-20T08:36:18.369Z,7.40
2019-02-20T08:38:48.947Z,8.25
2019-02-20T08:41:19.447Z,6.55
2019-02-20T08:43:49.940Z,7.40
2019-02-20T08:46:20.361Z,8.88
2019-02-20T08:48:50.891Z,9.10
2019-02-20T08:51:21.377Z,6.20
2019-02-20T08:53:51.843Z,8.35
2019-02-20T08:56:22.269Z,5.17
2019-02-20T08:58:53.216Z,6.62
2019-02-20T09:01:24.009Z,9.20
2019-02-20T09:03:54.473Z,5.40
2019-02-20T09:06:27.907Z,6.08
2019-02-20T09:08:58.420Z,5.35
2019-02-20T09:11:28.755Z,5.72
2019-02-20T09:13:59.122Z,7.75
2019-02-20T09:16:29.617Z,8.60
2019-02-20T09:19:00.003Z,8.30
2019-02-20T09:21:30.357Z,7.75
2019-02-20T09:24:00.720Z,5.62
2019-02-20T09:26:31.073Z,7.50
2019-02-20T09:29:01.526Z,5.45
2019-02-20T09:31:32.009Z,5.97
2019-02-20T09:34:02.667Z,5.67
2019-02-20T09:36:32.990Z,5.87
2019-02-20T09:39:22.960Z,6.72
2019-02-20T09:41:53.365Z,6.12
2019-02-20T09:44:24.181Z,6.97
2019-02-20T09:46:56.058Z,5.12
2019-02-20T09:49:26.416Z,5.08
2019-02-20T09:51:56.829Z,5.10
2019-02-20T09:54:27.351Z,6.45
2019-02-20T09:56:57.782Z,5.33
2019-02-20T09:59:28.165Z,7.03
2019-02-20T10:01:58.496Z,5.42
2019-02-20T10:04:28.948Z,5.90
2019-02-20T10:06:59.337Z,4.25
2019-02-20T10:09:29.713Z,6.78
2019-02-20T10:12:00.087Z,5.47
2019-02-20T10:14:30.628Z,4.92
2019-02-20T10:17:00.967Z,5.42
2019-02-20T10:19:31.340Z,4.40
2019-02-20T10:22:01.742Z,3.45
2019-02-20T10:24:32.191Z,6.90
2019-02-20T10:27:02.678Z,5.03
2019-02-20T10:29:33.171Z,5.55
2019-02-20T10:32:03.882Z,7.60
2019-02-20T10:34:34.884Z,7.05
2019-02-20T10:37:05.386Z,6.83
2019-02-20T10:39:35.930Z,5.03
2019-02-20T10:42:06.341Z,7.78
2019-02-20T10:44:36.801Z,6.97
2019-02-20T10:47:08.203Z,6.85
2019-02-20T10:49:38.860Z,5.40
2019-02-20T10:52:09.223Z,7.12
2019-02-20T10:54:39.623Z,5.95
2019-02-20T10:57:10.056Z,5.80
2019-02-20T10:59:40.514Z,6.65
2019-02-20T11:02:10.933Z,8.13
2019-02-20T11:04:41.384Z,6.97
2019-02-20T11:07:11.740Z,7.53
2019-02-20T11:09:42.201Z,10.60
2019-02-20T11:12:13.635Z,8.55
2019-02-20T11:14:44.083Z,7.65
2019-02-20T11:17:14.508Z,7.67
2019-02-20T11:19:44.892Z,6.33
2019-02-20T11:22:15.427Z,14.35
2019-02-20T11:24:45.809Z,8.83
2019-02-20T11:27:16.254Z,7.05
2019-02-20T11:29:46.633Z,8.18
2019-02-20T11:32:16.980Z,6.05
2019-02-20T11:34:47.374Z,7.67
2019-02-20T11:37:17.791Z,6.78
2019-02-20T11:39:48.168Z,6.22
2019-02-20T11:42:18.507Z,7.40
2019-02-20T11:44:48.919Z,7.12
2019-02-20T11:47:19.323Z,5.45
2019-02-20T11:49:49.702Z,4.78
2019-02-20T11:52:20.050Z,7.50
2019-02-20T11:54:50.430Z,4.35
2019-02-20T11:57:20.854Z,6.85
2019-02-20T11:59:51.315Z,6.53
2019-02-20T12:02:21.653Z,5.05
2019-02-20T12:04:52.038Z,6.40
2019-02-20T12:07:22.374Z,5.10
2019-02-20T12:09:54.451Z,6.92
2019-02-20T12:12:25.978Z,7.17
2019-02-20T12:14:56.358Z,3.95
2019-02-20T12:17:26.700Z,7.30
2019-02-20T12:19:57.087Z,6.25
2019-02-20T12:22:27.966Z,5.05
2019-02-20T12:24:59.355Z,7.17
2019-02-20T12:27:29.763Z,6.05
2019-02-20T12:30:00.269Z,6.47
2019-02-20T12:32:31.032Z,7.08
2019-02-20T12:35:02.494Z,7.45
2019-02-20T12:37:32.907Z,7.40
2019-02-20T12:40:05.057Z,7.47
2019-02-20T12:42:35.665Z,7.85
2019-02-20T12:45:07.588Z,6.62
2019-02-20T12:47:37.935Z,6.90
2019-02-20T12:50:11.708Z,6.12
2019-02-20T12:52:42.062Z,5.30
2019-02-20T12:55:12.513Z,5.80
2019-02-20T12:57:43.008Z,6.30
2019-02-20T13:00:18.266Z,7.05
2019-02-20T13:02:48.666Z,7.70
2019-02-20T13:05:19.268Z,7.40
2019-02-20T13:07:49.681Z,7.78
2019-02-20T13:10:20.073Z,6.37
2019-02-20T13:12:50.588Z,7.33
2019-02-20T13:15:21.100Z,6.50
2019-02-20T13:17:51.571Z,8.83
2019-02-20T13:20:22.289Z,6.95
2019-02-20T13:23:02.698Z,7.83
2019-02-20T13:25:35.692Z,8.18
2019-02-20T13:28:06.021Z,7.58
2019-02-20T13:30:36.485Z,7.72
2019-02-20T13:33:07.187Z,7.65
2019-02-20T13:35:37.644Z,8.13
2019-02-20T13:38:08.214Z,7.50
2019-02-20T13:40:38.961Z,7.45
2019-02-20T13:43:09.313Z,7.17
2019-02-20T13:45:39.703Z,7.97
2019-02-20T13:48:10.186Z,7.67
2019-02-20T13:50:40.639Z,7.45
2019-02-20T13:53:11.236Z,7.60
2019-02-20T13:55:41.664Z,7.28
2019-02-20T13:58:12.086Z,8.63
2019-02-20T14:00:42.455Z,8.18
2019-02-20T14:03:13.287Z,9.40
2019-02-20T14:05:43.834Z,9.18
2019-02-20T14:08:14.746Z,8.80
2019-02-20T14:10:45.209Z,9.13
2019-02-20T14:13:15.619Z,8.70
2019-02-20T14:15:46.341Z,7.92
2019-02-20T14:18:17.012Z,8.35
2019-02-20T14:20:47.383Z,9.18
2019-02-20T14:23:17.995Z,7.65
2019-02-20T14:25:48.433Z,7.65
2019-02-20T14:28:18.832Z,7.67
2019-02-20T14:30:49.524Z,7.95
2019-02-20T14:33:19.873Z,7.80
2019-02-20T14:35:50.657Z,8.23
2019-02-20T14:38:21.059Z,9.60
2019-02-20T14:40:51.436Z,9.10
2019-02-20T14:43:22.923Z,9.20
2019-02-20T14:45:53.355Z,9.70
2019-02-20T14:48:23.765Z,10.40
2019-02-20T14:50:54.224Z,10.90
2019-02-20T14:53:24.561Z,10.90
2019-02-20T14:55:54.949Z,11.20
2019-02-20T14:58:27.385Z,9.18
2019-02-20T15:00:57.889Z,12.15
2019-02-20T15:03:28.232Z,10.43
2019-02-20T15:05:58.885Z,9.25
2019-02-20T15:08:29.286Z,9.68
2019-02-20T15:10:59.745Z,9.83
2019-02-20T15:13:30.145Z,10.88
2019-02-20T15:16:00.598Z,10.48
2019-02-20T15:18:31.009Z,10.70
2019-02-20T15:21:02.683Z,9.68
2019-02-20T15:23:33.095Z,11.48
2019-02-20T15:26:03.750Z,10.40
2019-02-20T15:28:34.297Z,10.25
2019-02-20T15:31:04.752Z,11.05
2019-02-20T15:33:35.455Z,12.40
2019-02-20T15:36:05.841Z,13.05
2019-02-20T15:38:36.260Z,13.43
2019-02-20T15:41:06.635Z,13.90
2019-02-20T15:43:37.060Z,12.70
2019-02-20T15:46:07.443Z,13.58
2019-02-20T15:48:37.858Z,14.80
2019-02-20T15:51:08.310Z,15.20
2019-02-20T15:53:38.660Z,14.93
2019-02-20T15:56:09.041Z,15.00
2019-02-20T15:58:39.545Z,12.95
2019-02-20T16:01:11.554Z,13.62
2019-02-20T16:03:42.240Z,15.28
2019-02-20T16:06:12.622Z,14.93
2019-02-20T16:08:43.363Z,14.47
2019-02-20T16:11:13.763Z,14.35
2019-02-20T16:13:45.221Z,13.93
2019-02-20T16:16:15.674Z,12.43
2019-02-20T16:18:46.088Z,12.60
2019-02-20T16:21:16.528Z,12.60
2019-02-20T16:24:20.955Z,12.28
2019-02-20T16:26:51.910Z,14.55
2019-02-20T16:29:23.340Z,18.12
2019-02-20T16:31:53.878Z,15.00
2019-02-20T16:34:25.533Z,13.75
2019-02-20T16:36:58.009Z,10.08
2019-02-20T16:39:28.311Z,10.78
2019-02-20T16:41:58.734Z,11.25
2019-02-20T16:44:29.517Z,12.23
2019-02-20T16:46:59.975Z,16.27
2019-02-20T16:49:30.332Z,16.32
2019-02-20T16:52:00.745Z,13.32
2019-02-20T16:54:31.175Z,15.45
2019-02-20T16:57:01.653Z,15.35
2019-02-20T16:59:32.083Z,12.00
2019-02-20T17:02:02.540Z,9.98
2019-02-20T17:04:32.967Z,11.78
2019-02-20T17:07:16.305Z,11.43
2019-02-20T17:09:52.088Z,11.95
2019-02-20T17:12:22.798Z,8.88
2019-02-20T17:14:53.407Z,7.75
2019-02-20T17:17:25.265Z,7.00
2019-02-20T17:19:55.748Z,7.80
2019-02-20T17:22:26.465Z,8.10
2019-02-20T17:24:56.890Z,7.75
2019-02-20T17:27:27.567Z,9.33
2019-02-20T17:29:58.006Z,10.13
2019-02-20T17:32:28.396Z,14.15
2019-02-20T17:34:58.818Z,18.82
2019-02-20T17:37:29.384Z,17.00
2019-02-20T17:39:59.809Z,21.20
2019-02-20T17:42:30.326Z,20.60
2019-02-20T17:45:00.752Z,19.92
2019-02-20T17:47:31.270Z,18.27
2019-02-20T17:50:02.101Z,17.10
2019-02-20T17:52:32.632Z,17.50
2019-02-20T17:55:03.176Z,19.92
2019-02-20T17:57:33.780Z,18.37
2019-02-20T18:00:05.501Z,17.85
2019-02-20T18:02:36.658Z,18.27
2019-02-20T18:05:07.942Z,18.37
2019-02-20T18:07:38.496Z,16.67
2019-02-20T18:10:10.240Z,16.27
2019-02-20T18:12:40.854Z,16.40
2019-02-20T18:15:12.981Z,14.75
2019-02-20T18:17:43.443Z,13.93
2019-02-20T18:20:13.854Z,16.48
2019-02-20T18:22:44.643Z,16.90
2019-02-20T18:25:15.113Z,17.07
2019-02-20T18:27:45.654Z,18.10
2019-02-20T18:30:16.521Z,20.37
2019-02-20T18:32:47.041Z,18.82
2019-02-20T18:35:19.108Z,18.45
2019-02-20T18:37:49.726Z,16.50
2019-02-20T18:40:20.145Z,17.37
2019-02-20T18:42:50.718Z,18.15
2019-02-20T18:45:21.246Z,20.40
2019-02-20T18:47:51.682Z,21.85
2019-02-20T18:50:22.121Z,21.80
2019-02-20T18:52:52.505Z,21.52
2019-02-20T18:55:23.188Z,21.02
2019-02-20T18:57:53.642Z,21.82
2019-02-20T19:00:24.090Z,22.85
2019-02-20T19:02:54.695Z,20.97
2019-02-20T19:05:25.107Z,17.60
2019-02-20T19:07:55.688Z,16.32
2019-02-20T19:10:29.498Z,16.70
2019-02-20T19:13:27.581Z,16.60
2019-02-20T19:16:18.574Z,17.23
2019-02-20T19:19:02.589Z,21.10
2019-02-20T19:21:55.853Z,17.02
2019-02-20T19:24:35.182Z,15.95
2019-02-20T19:27:33.209Z,15.98
2019-02-20T19:30:22.056Z,13.53
2019-02-20T19:33:13.717Z,13.28
2019-02-20T19:36:15.618Z,12.78
2019-02-20T19:39:02.691Z,14.35
2019-02-20T19:41:47.726Z,14.05
2019-02-20T19:44:24.126Z,14.78
2019-02-20T19:47:19.308Z,14.63
2019-02-20T19:50:02.011Z,15.00
2019-02-20T19:52:49.867Z,16.15
2019-02-20T19:55:55.830Z,15.78
2019-02-20T19:58:41.202Z,14.83
2019-02-20T20:01:23.980Z,14.98
2019-02-20T20:04:03.549Z,16.52
2019-02-20T20:06:45.858Z,18.52
2019-02-20T20:09:31.515Z,20.55
2019-02-20T20:12:14.092Z,23.42
2019-02-20T20:15:07.395Z,18.57
2019-02-20T20:17:51.859Z,18.73
2019-02-20T20:20:28.405Z,17.30
2019-02-20T20:23:10.941Z,16.95
2019-02-20T20:26:13.703Z,18.12
2019-02-20T20:29:16.209Z,18.27
2019-02-20T20:31:58.776Z,18.82
2019-02-20T20:34:53.387Z,17.85
2019-02-20T20:37:30.223Z,18.80
2019-02-20T20:40:13.108Z,19.15
2019-02-20T20:42:52.708Z,19.98
2019-02-20T20:45:53.944Z,20.23
2019-02-20T20:48:44.370Z,21.50
2019-02-20T20:51:34.350Z,20.75
2019-02-20T20:54:29.071Z,20.08
2019-02-20T20:59:51.509Z,20.00
2019-02-20T21:02:25.197Z,20.43
2019-02-20T21:05:01.406Z,21.50
2019-02-20T21:07:41.703Z,21.33
2019-02-20T21:10:33.509Z,18.48
2019-02-20T21:13:28.559Z,20.48
2019-02-20T21:16:17.308Z,20.02
2019-02-20T21:19:00.947Z,18.20
2019-02-20T21:21:59.140Z,19.73
2019-02-20T21:24:35.557Z,19.55
2019-02-20T21:27:28.889Z,18.25
2019-02-20T21:30:02.595Z,17.70
2019-02-20T21:33:09.774Z,17.60
2019-02-20T21:36:11.858Z,18.35
2019-02-20T21:39:13.107Z,16.40
2019-02-20T21:42:04.511Z,17.20
2019-02-20T21:44:46.399Z,18.98
2019-02-20T21:47:31.917Z,17.82
2019-02-20T21:50:22.463Z,16.27
2019-02-20T21:53:12.489Z,15.30
2019-02-20T21:56:06.988Z,14.93
2019-02-20T21:58:43.277Z,14.43
2019-02-20T22:01:38.725Z,14.18
2019-02-20T22:04:33.834Z,15.53
2019-02-20T22:07:07.572Z,15.63
2019-02-20T22:09:57.374Z,15.35
2019-02-20T22:12:23.025Z,16.45
2019-02-20T22:14:59.161Z,16.62
2019-02-20T22:17:58.359Z,15.30
2019-02-20T22:20:43.781Z,14.58
2019-02-20T22:23:26.208Z,15.75
2019-02-20T22:26:10.185Z,16.10
2019-02-20T22:28:58.928Z,16.17
2019-02-20T22:32:00.607Z,15.75
2019-02-20T22:35:37.868Z,17.20
2019-02-20T22:38:38.979Z,17.23
2019-02-20T22:41:32.289Z,17.10
2019-02-20T22:44:31.418Z,17.98
2019-02-20T22:47:20.360Z,16.70
2019-02-20T22:50:29.230Z,17.40
2019-02-20T22:53:26.327Z,17.37
2019-02-20T22:56:02.697Z,16.93
2019-02-20T22:58:57.769Z,16.57
2019-02-20T23:01:34.415Z,17.55
2019-02-20T23:04:13.912Z,17.27
2019-02-20T23:06:47.617Z,16.50
2019-02-20T23:09:52.996Z,16.50
2019-02-20T23:12:49.131Z,16.00
2019-02-20T23:15:19.650Z,17.15
2019-02-20T23:17:50.087Z,16.45
2019-02-20T23:20:20.454Z,15.72
2019-02-20T23:22:50.889Z,15.30
2019-02-20T23:25:21.257Z,14.85
2019-02-20T23:27:51.755Z,15.18
2019-02-20T23:30:22.279Z,15.08
2019-02-20T23:32:52.717Z,14.75
2019-02-20T23:35:23.226Z,14.98
2019-02-20T23:37:53.772Z,16.65
2019-02-20T23:40:24.437Z,14.80
2019-02-20T23:42:54.767Z,15.18
2019-02-20T23:45:25.234Z,17.05
2019-02-20T23:47:55.635Z,18.30
2019-02-20T23:50:26.084Z,21.42
2019-02-20T23:52:56.622Z,16.73
2019-02-20T23:55:26.972Z,15.83
2019-02-20T23:57:57.505Z,16.05
